ロサンゼルス の空港の天気 - METARとTAF

ロサンゼルス国際空港 ( KLAX / LAX ) - アメリカ カリフォルニア州ロサンゼルス
飛行場実況気象(Metar)
観測時間04/24 18:53 PDT (04/25 01:53 UTC)
風向・風速西 4m/s
視程10km以上
天気現象
少しの雲 雲底高度 300m
全天の4割程度の雲 雲底高度 4570m
全天の4割程度の雲 雲底高度 7620m
気温13.9℃
湿度80%
気圧1015.7hPa
METARKLAX 250153Z 27007KT 10SM FEW010 SCT150 SCT250 14/11 A3000 RMK AO2 SLP157 T01390106
過去の天気等 Google飛行場航空写真 Wunderground天気予報

過去48時間のMETAR

飛行場予報(TAF)
発表時間: 4/24 16:23 PDT (4/24 23:23 UTC)
予報対象時間: 24日17時 PDT ~ 25日23時 PDT
風向・風速西 7m/s
視程10km以上
全天の4割程度の雲 雲底高度 270m
全天の4割程度の雲 雲底高度 4,570m
24日19時 PDT から
風向・風速西 3m/s
視程10km以上
天気現象もや
全天の8割程度の雲 雲底高度 240m
25日1時 PDT から
風向・風速不定 2m/s
視程3,220m
天気現象もや
全天の8割程度の雲 雲底高度 180m
25日9時 PDT から
風向・風速不定 2m/s
視程6,440m
天気現象もや
全天を覆う雲 雲底高度 270m
25日11時 PDT から
風向・風速西 3m/s
視程10km以上
天気現象煙霧
全天の4割程度の雲 雲底高度 300m
25日13時 PDT から
風向・風速西 5m/s
視程10km以上
少しの雲 雲底高度 460m
25日19時 PDT から
風向・風速西 4m/s
視程10km以上
全天の8割程度の雲 雲底高度 300m
KLAX 242323Z 2500/2606 27013KT P6SM SCT009 SCT150
FM250200 26006KT 6SM BR BKN008
FM250800 VRB03KT 2SM BR BKN006
FM251600 VRB03KT 4SM BR OVC009
FM251800 26005KT 6SM HZ SCT010
FM252000 26010KT P6SM FEW015
FM260200 27007KT P6SM BKN010